createdAt,value
2022-12-01T00:00:18.944Z,15.18
2022-12-01T00:03:21.959Z,19.50
2022-12-01T00:06:24.312Z,15.63
2022-12-01T00:09:44.768Z,20.17
2022-12-01T00:12:46.923Z,21.23
2022-12-01T00:15:49.124Z,13.20
2022-12-01T00:18:52.640Z,12.75
2022-12-01T00:21:54.771Z,18.27
2022-12-01T00:24:56.908Z,15.48
2022-12-01T00:27:59.215Z,17.12
2022-12-01T00:31:01.367Z,12.40
2022-12-01T00:34:06.894Z,15.45
2022-12-01T00:37:13.062Z,10.75
2022-12-01T00:40:15.275Z,14.40
2022-12-01T00:43:17.600Z,15.95
2022-12-01T00:46:20.234Z,15.63
2022-12-01T00:49:22.514Z,13.25
2022-12-01T00:52:24.665Z,15.13
2022-12-01T00:55:26.895Z,7.70
2022-12-01T00:58:29.034Z,7.18
2022-12-01T01:01:31.291Z,9.90
2022-12-01T01:04:35.150Z,7.53
2022-12-01T01:07:37.353Z,11.27
2022-12-01T01:10:40.626Z,12.13
2022-12-01T01:13:42.780Z,9.98
2022-12-01T01:16:44.939Z,8.38
2022-12-01T01:19:47.455Z,6.93
2022-12-01T01:22:49.919Z,8.13
2022-12-01T01:25:52.176Z,8.18
2022-12-01T01:28:56.861Z,12.43
2022-12-01T01:31:59.073Z,14.07
2022-12-01T01:35:01.221Z,11.05
2022-12-01T01:38:03.523Z,7.53
2022-12-01T01:41:06.624Z,4.18
2022-12-01T01:44:46.777Z,6.68
2022-12-01T01:47:50.410Z,6.43
2022-12-01T01:50:52.706Z,5.93
2022-12-01T01:53:58.613Z,5.80
2022-12-01T01:57:01.049Z,5.82
2022-12-01T02:00:08.014Z,8.35
2022-12-01T02:03:13.361Z,9.20
2022-12-01T02:06:15.510Z,7.75
2022-12-01T02:09:17.699Z,7.72
2022-12-01T02:12:44.220Z,6.72
2022-12-01T02:15:46.302Z,11.32
2022-12-01T02:19:09.346Z,6.57
2022-12-01T02:22:40.883Z,8.52
2022-12-01T02:25:50.657Z,5.60
2022-12-01T02:29:04.893Z,6.45
2022-12-01T02:32:10.152Z,9.40
2022-12-01T02:35:38.246Z,7.43
2022-12-01T02:38:43.428Z,7.10
2022-12-01T02:41:51.367Z,9.20
2022-12-01T02:44:53.986Z,9.10
2022-12-01T02:47:57.421Z,7.18
2022-12-01T02:51:21.948Z,5.28
2022-12-01T02:54:24.481Z,6.07
2022-12-01T02:57:26.711Z,11.30
2022-12-01T03:00:30.618Z,6.82
2022-12-01T03:03:45.872Z,6.10
2022-12-01T03:07:17.490Z,5.22
2022-12-01T03:10:27.709Z,3.70
2022-12-01T03:13:47.020Z,6.78
2022-12-01T03:16:53.563Z,5.07
2022-12-01T03:20:08.705Z,3.55
2022-12-01T03:23:20.534Z,7.45
2022-12-01T03:26:24.722Z,4.55
2022-12-01T03:29:48.086Z,7.00
2022-12-01T03:32:54.974Z,5.78
2022-12-01T03:36:08.043Z,7.75
2022-12-01T03:39:14.912Z,13.40
2022-12-01T03:42:22.836Z,5.55
2022-12-01T03:45:31.430Z,4.80
2022-12-01T03:48:34.164Z,9.18
2022-12-01T03:51:52.195Z,4.82
2022-12-01T03:55:01.325Z,14.57
2022-12-01T03:58:12.943Z,6.12
2022-12-01T04:01:15.214Z,3.87
2022-12-01T04:04:17.466Z,7.70
2022-12-01T04:07:21.273Z,7.28
2022-12-01T04:10:26.350Z,5.97
2022-12-01T04:13:28.481Z,5.03
2022-12-01T04:16:30.716Z,7.25
2022-12-01T04:19:32.927Z,8.50
2022-12-01T04:22:35.070Z,7.28
2022-12-01T04:25:37.225Z,12.77
2022-12-01T04:28:39.380Z,5.65
2022-12-01T04:31:41.698Z,7.82
2022-12-01T04:34:44.074Z,20.85
2022-12-01T04:37:46.253Z,13.50
2022-12-01T04:40:48.427Z,10.88
2022-12-01T04:43:53.571Z,8.40
2022-12-01T04:46:55.825Z,4.97
2022-12-01T04:49:58.016Z,5.25
2022-12-01T04:53:00.221Z,10.93
2022-12-01T04:56:02.595Z,8.95
2022-12-01T04:59:04.831Z,7.65
2022-12-01T05:02:07.744Z,8.77
2022-12-01T05:05:11.117Z,7.80
2022-12-01T05:08:13.322Z,15.95
2022-12-01T05:11:16.250Z,19.80
2022-12-01T05:14:18.422Z,15.27
2022-12-01T05:17:20.591Z,18.20
2022-12-01T05:20:43.339Z,18.42
2022-12-01T05:23:45.757Z,15.13
2022-12-01T05:26:48.099Z,12.25
2022-12-01T05:29:50.518Z,23.70
2022-12-01T05:32:53.133Z,10.90
2022-12-01T05:35:55.714Z,7.47
2022-12-01T05:38:57.849Z,20.35
2022-12-01T05:41:59.973Z,21.33
2022-12-01T05:45:02.199Z,16.25
2022-12-01T05:48:04.546Z,10.90
2022-12-01T05:51:11.231Z,14.30
2022-12-01T05:54:13.471Z,13.52
2022-12-01T05:57:15.648Z,8.63
2022-12-01T06:00:18.289Z,8.48
2022-12-01T06:03:20.436Z,11.60
2022-12-01T06:06:22.602Z,13.52
2022-12-01T06:09:25.245Z,40.53
2022-12-01T06:12:27.668Z,38.55
2022-12-01T06:15:29.892Z,20.88
2022-12-01T06:18:34.464Z,13.38
2022-12-01T06:21:36.602Z,21.15
2022-12-01T06:24:38.825Z,23.55
2022-12-01T06:27:41.059Z,21.83
2022-12-01T06:30:43.579Z,8.55
2022-12-01T06:33:45.712Z,14.45
2022-12-01T06:36:47.978Z,16.10
2022-12-01T06:39:50.350Z,11.43
2022-12-01T06:42:52.892Z,15.90
2022-12-01T06:46:00.896Z,14.63
2022-12-01T06:49:04.548Z,33.28
2022-12-01T06:52:06.810Z,33.00
2022-12-01T06:55:09.283Z,45.83
2022-12-01T06:58:11.675Z,24.20
2022-12-01T07:01:13.944Z,17.33
2022-12-01T07:04:16.221Z,16.30
2022-12-01T07:07:18.378Z,22.77
2022-12-01T07:10:20.520Z,17.90
2022-12-01T07:13:22.692Z,11.45
2022-12-01T07:16:24.969Z,14.82
2022-12-01T07:19:27.246Z,16.65
2022-12-01T07:22:32.818Z,18.17
2022-12-01T07:25:35.222Z,10.30
2022-12-01T07:28:37.381Z,19.02
2022-12-01T07:31:39.649Z,15.38
2022-12-01T07:34:41.872Z,13.70
2022-12-01T07:37:44.030Z,15.90
2022-12-01T07:40:46.183Z,15.27
2022-12-01T07:43:48.626Z,18.42
2022-12-01T07:46:50.800Z,10.82
2022-12-01T07:49:52.973Z,12.20
2022-12-01T07:52:55.108Z,8.55
2022-12-01T07:55:58.323Z,7.75
2022-12-01T07:59:00.539Z,7.05
2022-12-01T08:02:02.748Z,9.25
2022-12-01T08:05:05.321Z,8.48
2022-12-01T08:08:07.713Z,9.15
2022-12-01T08:11:16.173Z,10.05
2022-12-01T08:14:18.317Z,10.43
2022-12-01T08:17:20.752Z,8.43
2022-12-01T08:20:24.205Z,9.13
2022-12-01T08:23:26.493Z,10.23
2022-12-01T08:26:28.672Z,6.97
2022-12-01T08:29:30.838Z,10.95
2022-12-01T08:32:33.025Z,10.35
2022-12-01T08:35:36.937Z,6.07
2022-12-01T08:38:39.094Z,10.10
2022-12-01T08:41:41.305Z,10.30
2022-12-01T08:44:43.522Z,8.80
2022-12-01T08:47:45.668Z,13.60
2022-12-01T08:50:47.864Z,9.48
2022-12-01T08:53:50.513Z,11.30
2022-12-01T08:56:52.735Z,7.72
2022-12-01T08:59:54.899Z,12.10
2022-12-01T09:02:57.135Z,10.20
2022-12-01T09:06:23.941Z,5.35
2022-12-01T09:09:29.171Z,7.28
2022-12-01T09:12:31.375Z,9.18
2022-12-01T09:15:33.978Z,9.93
2022-12-01T09:18:36.239Z,8.82
2022-12-01T09:21:38.595Z,8.68
2022-12-01T09:24:40.799Z,4.40
2022-12-01T09:27:43.416Z,5.70
2022-12-01T09:30:46.775Z,8.20
2022-12-01T09:33:54.613Z,5.47
2022-12-01T09:36:58.330Z,8.90
2022-12-01T09:40:00.604Z,4.80
2022-12-01T09:43:05.782Z,11.63
2022-12-01T09:46:14.392Z,11.23
2022-12-01T09:49:25.273Z,6.35
2022-12-01T09:52:29.919Z,7.68
2022-12-01T09:55:32.218Z,15.77
2022-12-01T09:58:34.770Z,8.50
2022-12-01T10:01:38.642Z,6.75
2022-12-01T10:04:43.271Z,8.98
2022-12-01T10:07:49.359Z,6.93
2022-12-01T10:10:53.210Z,8.13
2022-12-01T10:13:55.408Z,7.28
2022-12-01T10:17:14.218Z,13.90
2022-12-01T10:20:44.650Z,42.00
2022-12-01T10:23:59.946Z,8.38
2022-12-01T10:27:22.451Z,8.35
2022-12-01T10:30:24.949Z,6.53
2022-12-01T10:33:34.642Z,7.05
2022-12-01T10:36:36.862Z,6.37
2022-12-01T10:39:41.957Z,9.35
2022-12-01T10:42:46.562Z,5.47
2022-12-01T10:45:48.849Z,5.62
2022-12-01T10:48:56.679Z,6.65
2022-12-01T10:51:58.871Z,6.10
2022-12-01T10:55:01.545Z,8.30
2022-12-01T10:58:16.358Z,9.18
2022-12-01T11:01:22.278Z,5.37
2022-12-01T11:04:46.069Z,5.22
2022-12-01T11:07:49.438Z,5.15
2022-12-01T11:10:52.210Z,5.12
2022-12-01T11:13:55.090Z,11.27
2022-12-01T11:16:57.316Z,10.80
2022-12-01T11:20:21.564Z,7.80
2022-12-01T11:23:26.679Z,7.57
2022-12-01T11:26:31.640Z,4.78
2022-12-01T11:29:38.322Z,6.28
2022-12-01T11:32:40.560Z,6.07
2022-12-01T11:35:47.571Z,6.93
2022-12-01T11:38:50.644Z,7.60
2022-12-01T11:41:57.750Z,22.17
2022-12-01T11:45:19.182Z,7.43
2022-12-01T11:48:25.882Z,7.82
2022-12-01T11:51:37.808Z,9.13
2022-12-01T11:54:55.547Z,8.95
2022-12-01T11:58:02.057Z,9.27
2022-12-01T12:01:06.173Z,10.43
2022-12-01T12:04:30.212Z,10.63
2022-12-01T12:07:54.159Z,8.20
2022-12-01T12:11:14.958Z,10.05
2022-12-01T12:14:26.085Z,7.73
2022-12-01T12:18:03.677Z,4.40
2022-12-01T12:21:17.814Z,2.10
2022-12-01T12:24:48.318Z,3.12
2022-12-01T12:28:24.781Z,2.92
2022-12-01T12:31:37.281Z,3.70
2022-12-01T12:35:09.829Z,3.90
2022-12-01T12:38:47.344Z,5.45
2022-12-01T12:41:53.078Z,5.97
2022-12-01T12:45:15.292Z,3.60
2022-12-01T12:49:18.199Z,4.37
2022-12-01T12:52:17.021Z,4.28
2022-12-01T12:55:33.364Z,2.58
2022-12-01T12:58:43.564Z,3.70
2022-12-01T13:02:02.206Z,5.45
2022-12-01T13:05:36.999Z,5.03
2022-12-01T13:08:48.288Z,8.50
2022-12-01T13:11:55.267Z,3.40
2022-12-01T13:15:20.997Z,4.95
2022-12-01T13:18:23.268Z,3.80
2022-12-01T13:21:34.462Z,4.57
2022-12-01T13:24:36.695Z,6.90
2022-12-01T13:27:41.282Z,4.03
2022-12-01T13:31:04.445Z,6.20
2022-12-01T13:34:06.683Z,6.25
2022-12-01T13:37:10.411Z,3.50
2022-12-01T13:40:21.242Z,4.25
2022-12-01T13:43:23.458Z,13.88
2022-12-01T13:46:30.280Z,12.50
2022-12-01T13:49:40.470Z,6.32
2022-12-01T13:52:49.555Z,4.47
2022-12-01T13:56:03.968Z,7.65
2022-12-01T13:59:39.026Z,4.70
2022-12-01T14:02:41.323Z,5.55
2022-12-01T14:06:07.946Z,6.47
2022-12-01T14:09:16.270Z,5.72
2022-12-01T14:12:25.831Z,10.48
2022-12-01T14:15:53.198Z,7.85
2022-12-01T14:18:57.192Z,13.93
2022-12-01T14:22:00.536Z,7.47
2022-12-01T14:25:06.246Z,13.18
2022-12-01T14:28:19.528Z,10.55
2022-12-01T14:31:33.940Z,12.98
2022-12-01T14:34:37.401Z,16.73
2022-12-01T14:37:43.362Z,12.43
2022-12-01T14:40:45.512Z,12.85
2022-12-01T14:44:04.017Z,11.12
2022-12-01T14:47:41.631Z,7.90
2022-12-01T14:50:53.666Z,10.77
2022-12-01T14:53:57.274Z,11.43
2022-12-01T14:57:06.273Z,26.42
2022-12-01T15:00:21.916Z,37.22
2022-12-01T15:03:30.500Z,39.85
2022-12-01T15:06:35.670Z,26.10
2022-12-01T15:10:02.030Z,26.15
2022-12-01T15:13:33.291Z,19.10
2022-12-01T15:16:40.950Z,25.08
2022-12-01T15:19:44.169Z,38.95
2022-12-01T15:22:46.419Z,41.42
2022-12-01T15:25:48.591Z,37.33
2022-12-01T15:28:51.391Z,65.35
2022-12-01T15:31:59.823Z,57.05
2022-12-01T15:35:04.608Z,58.63
2022-12-01T15:38:16.984Z,56.25
2022-12-01T15:41:28.964Z,74.30
2022-12-01T15:44:34.826Z,53.30
2022-12-01T15:47:43.565Z,98.35
2022-12-01T15:50:49.981Z,67.40
2022-12-01T15:53:58.907Z,65.97
2022-12-01T15:57:01.450Z,77.53
2022-12-01T16:00:04.169Z,61.55
2022-12-01T16:03:06.402Z,56.28
2022-12-01T16:06:12.116Z,43.50
2022-12-01T16:09:41.599Z,44.05
2022-12-01T16:12:43.918Z,33.70
2022-12-01T16:15:46.125Z,45.10
2022-12-01T16:19:10.249Z,35.88
2022-12-01T16:22:16.250Z,41.95
2022-12-01T16:25:27.272Z,32.47
2022-12-01T16:28:35.858Z,38.53
2022-12-01T16:31:58.694Z,45.53
2022-12-01T16:35:01.139Z,27.35
2022-12-01T16:38:20.688Z,148.85
2022-12-01T16:41:44.627Z,191.57
2022-12-01T16:44:48.152Z,107.63
2022-12-01T16:47:50.665Z,68.25
2022-12-01T16:50:53.554Z,46.97
2022-12-01T16:53:55.956Z,74.95
2022-12-01T16:56:58.269Z,66.32
2022-12-01T17:00:00.489Z,63.40
2022-12-01T17:03:04.443Z,93.97
2022-12-01T17:06:07.314Z,56.80
2022-12-01T17:09:09.567Z,84.05
2022-12-01T17:12:11.742Z,128.07
2022-12-01T17:15:15.162Z,171.85
2022-12-01T17:18:18.673Z,162.93
2022-12-01T17:21:21.098Z,122.03
2022-12-01T17:24:23.247Z,126.47
2022-12-01T17:27:27.713Z,57.62
2022-12-01T17:30:30.054Z,50.67
2022-12-01T17:33:32.972Z,48.75
2022-12-01T17:36:35.336Z,63.92
2022-12-01T17:39:37.790Z,64.10
2022-12-01T17:42:39.934Z,67.22
2022-12-01T17:45:43.124Z,65.68
2022-12-01T17:48:46.505Z,80.57
2022-12-01T17:51:48.740Z,80.25
2022-12-01T17:54:51.197Z,96.85
2022-12-01T17:57:53.888Z,89.55
2022-12-01T18:00:56.148Z,72.90
2022-12-01T18:03:59.071Z,71.37
2022-12-01T18:07:01.816Z,56.70
2022-12-01T18:10:04.622Z,60.70
2022-12-01T18:13:06.834Z,65.78
2022-12-01T18:16:10.766Z,51.70
2022-12-01T18:19:13.286Z,45.58
2022-12-01T18:22:15.687Z,53.08
2022-12-01T18:25:18.092Z,51.83
2022-12-01T18:28:20.324Z,48.47
2022-12-01T18:31:23.478Z,50.75
2022-12-01T18:34:29.385Z,39.97
2022-12-01T18:37:31.857Z,46.88
2022-12-01T18:40:37.101Z,45.35
2022-12-01T18:43:39.379Z,34.17
2022-12-01T18:46:41.931Z,44.67
2022-12-01T18:49:44.464Z,47.33
2022-12-01T18:52:46.873Z,45.83
2022-12-01T18:55:49.299Z,37.78
2022-12-01T18:59:00.838Z,39.40
2022-12-01T19:02:04.432Z,43.03
2022-12-01T19:05:08.458Z,34.03
2022-12-01T19:08:11.637Z,33.95
2022-12-01T19:11:14.875Z,42.10
2022-12-01T19:14:18.653Z,24.52
2022-12-01T19:17:21.087Z,25.80
2022-12-01T19:20:24.619Z,23.05
2022-12-01T19:23:27.282Z,18.75
2022-12-01T19:26:30.114Z,31.55
2022-12-01T19:29:32.703Z,15.38
2022-12-01T19:32:34.962Z,16.80
2022-12-01T19:35:37.316Z,14.25
2022-12-01T19:38:40.140Z,10.18
2022-12-01T19:41:42.566Z,15.25
2022-12-01T19:44:45.479Z,12.37
2022-12-01T19:47:48.040Z,14.63
2022-12-01T19:50:50.446Z,15.23
2022-12-01T19:53:54.436Z,15.82
2022-12-01T19:56:57.400Z,12.60
2022-12-01T20:00:00.272Z,13.05
2022-12-01T20:03:04.044Z,10.60
2022-12-01T20:06:14.406Z,7.65
2022-12-01T20:09:16.913Z,7.18
2022-12-01T20:12:19.569Z,10.57
2022-12-01T20:15:21.890Z,7.28
2022-12-01T20:18:24.387Z,9.15
2022-12-01T20:21:30.351Z,7.97
2022-12-01T20:24:32.849Z,10.88
2022-12-01T20:27:35.880Z,7.90
2022-12-01T20:30:40.648Z,6.15
2022-12-01T20:33:43.396Z,10.07
2022-12-01T20:36:46.084Z,14.02
2022-12-01T20:39:48.281Z,14.87
2022-12-01T20:42:50.729Z,17.27
2022-12-01T20:45:53.235Z,9.73
2022-12-01T20:48:55.689Z,10.85
2022-12-01T20:51:58.108Z,7.45
2022-12-01T20:55:00.536Z,17.35
2022-12-01T20:58:05.401Z,14.85
2022-12-01T21:01:15.381Z,14.50
2022-12-01T21:04:17.895Z,12.07
2022-12-01T21:07:20.124Z,14.43
2022-12-01T21:10:22.485Z,12.98
2022-12-01T21:13:44.320Z,15.05
2022-12-01T21:16:49.237Z,13.57
2022-12-01T21:20:22.044Z,12.23
2022-12-01T21:23:24.601Z,9.25
2022-12-01T21:26:26.834Z,26.48
2022-12-01T21:29:43.927Z,9.68
2022-12-01T21:32:46.917Z,14.82
2022-12-01T21:35:52.751Z,12.20
2022-12-01T21:39:00.543Z,10.02
2022-12-01T21:42:14.389Z,9.30
2022-12-01T21:45:26.158Z,6.65
2022-12-01T21:48:35.432Z,10.20
2022-12-01T21:51:37.860Z,9.20
2022-12-01T21:54:40.084Z,9.70
2022-12-01T21:57:45.234Z,9.38
2022-12-01T22:00:47.448Z,12.57
2022-12-01T22:03:49.865Z,11.52
2022-12-01T22:06:53.862Z,6.95
2022-12-01T22:09:55.994Z,10.82
2022-12-01T22:12:58.158Z,19.23
2022-12-01T22:16:00.346Z,7.37
2022-12-01T22:19:14.687Z,13.43
2022-12-01T22:22:25.317Z,9.68
2022-12-01T22:25:28.438Z,7.50
2022-12-01T22:28:30.680Z,7.82
2022-12-01T22:31:34.315Z,11.85
2022-12-01T22:34:36.672Z,7.20
2022-12-01T22:37:44.432Z,11.43
2022-12-01T22:40:58.354Z,7.30
2022-12-01T22:44:01.449Z,9.20
2022-12-01T22:47:03.894Z,9.80
2022-12-01T22:50:25.806Z,15.20
2022-12-01T22:53:31.164Z,8.52
2022-12-01T22:57:15.468Z,12.50
2022-12-01T23:00:21.165Z,11.35
2022-12-01T23:03:23.407Z,15.38
2022-12-01T23:06:44.459Z,13.90
2022-12-01T23:09:46.628Z,8.77
2022-12-01T23:12:50.987Z,13.32
2022-12-01T23:15:54.091Z,12.35
2022-12-01T23:18:56.373Z,9.48
2022-12-01T23:21:58.531Z,7.20
2022-12-01T23:25:02.275Z,11.02
2022-12-01T23:28:06.617Z,12.90
2022-12-01T23:31:09.302Z,11.02
2022-12-01T23:34:14.435Z,11.90
2022-12-01T23:37:33.769Z,6.32
2022-12-01T23:40:36.343Z,11.18
2022-12-01T23:43:40.449Z,11.18
2022-12-01T23:46:42.888Z,8.27
2022-12-01T23:49:46.429Z,7.22
2022-12-01T23:52:49.026Z,8.98
2022-12-01T23:55:51.515Z,7.28
2022-12-01T23:58:54.807Z,17.85
